Delta Virtual Airport Information Service

Montego Bay Sangster International Airport

ICAO: MKJS Country: Jamaica
Latitude: 18.5037 Longitude: -77.9133
Latest Arrival : UAL1146 (KORD-MKJS) Latest Departure : SWA273 (MKJS-KMCO)


WX CaptureLIVE
Data provided by noaa.gov | Fetched at 04:59:05

METAR : MKJS 031000Z 10004KT 9999 -SHRA BKN022 26/23 Q1013

TAF : MKJS 030515Z 0306/0406 13004KT 9999 FEW022 BECMG 0314/0316 06015KT BECMG 0401/0403 13004KT


Runway Data for MKJS
Data provided by openaviationdata.com

Runway ID Mag Var Hdg Length Elevation Surface ILS Freq ILS Id ILS Slope
7 -5 70° 8738 ft 7 ft Asphalt 109.5 ISIA 3
25 -5 250° 8738 ft 7 ft Asphalt -- -- --

Montego Bay Sangster International Airport, Jamaica
Use only for reference purposes



Not for navigational purposes.